sensor_id;sensor_type;location;lat;lon;timestamp;temperature;humidity
44982;DHT22;30716;41.740;-70.400;2023-03-01T00:02:10;24.30;34.10
44982;DHT22;30716;41.740;-70.400;2023-03-01T00:04:37;24.30;34.50
44982;DHT22;30716;41.740;-70.400;2023-03-01T00:07:03;24.30;34.30
44982;DHT22;30716;41.740;-70.400;2023-03-01T00:09:29;24.30;34.20
44982;DHT22;30716;41.740;-70.400;2023-03-01T00:11:55;24.30;34.00
44982;DHT22;30716;41.740;-70.400;2023-03-01T00:14:21;24.30;34.00
44982;DHT22;30716;41.740;-70.400;2023-03-01T00:16:48;24.30;34.10
44982;DHT22;30716;41.740;-70.400;2023-03-01T00:19:19;24.40;34.10
44982;DHT22;30716;41.740;-70.400;2023-03-01T00:21:45;24.40;34.10
44982;DHT22;30716;41.740;-70.400;2023-03-01T00:24:11;24.40;33.90
44982;DHT22;30716;41.740;-70.400;2023-03-01T00:26:38;24.40;34.00
44982;DHT22;30716;41.740;-70.400;2023-03-01T00:29:04;24.40;34.00
44982;DHT22;30716;41.740;-70.400;2023-03-01T00:31:32;24.40;34.00
44982;DHT22;30716;41.740;-70.400;2023-03-01T00:34:04;24.40;34.00
44982;DHT22;30716;41.740;-70.400;2023-03-01T00:36:36;24.40;33.90
44982;DHT22;30716;41.740;-70.400;2023-03-01T00:39:04;24.40;33.90
44982;DHT22;30716;41.740;-70.400;2023-03-01T00:41:31;24.40;33.90
44982;DHT22;30716;41.740;-70.400;2023-03-01T00:43:57;24.40;34.00
44982;DHT22;30716;41.740;-70.400;2023-03-01T00:46:25;24.50;34.00
44982;DHT22;30716;41.740;-70.400;2023-03-01T00:48:52;24.40;34.00
44982;DHT22;30716;41.740;-70.400;2023-03-01T00:51:27;24.40;34.00
44982;DHT22;30716;41.740;-70.400;2023-03-01T00:53:55;24.50;34.20
44982;DHT22;30716;41.740;-70.400;2023-03-01T00:56:23;24.50;34.10
44982;DHT22;30716;41.740;-70.400;2023-03-01T00:58:49;24.50;34.10
44982;DHT22;30716;41.740;-70.400;2023-03-01T01:01:22;24.50;34.10
44982;DHT22;30716;41.740;-70.400;2023-03-01T01:03:53;24.50;34.20
44982;DHT22;30716;41.740;-70.400;2023-03-01T01:06:22;24.50;34.20
44982;DHT22;30716;41.740;-70.400;2023-03-01T01:08:50;24.40;34.20
44982;DHT22;30716;41.740;-70.400;2023-03-01T01:11:17;24.40;34.20
44982;DHT22;30716;41.740;-70.400;2023-03-01T01:13:45;24.50;34.20
44982;DHT22;30716;41.740;-70.400;2023-03-01T01:16:12;24.50;34.20
44982;DHT22;30716;41.740;-70.400;2023-03-01T01:18:39;24.50;34.10
44982;DHT22;30716;41.740;-70.400;2023-03-01T01:21:08;24.50;34.10
44982;DHT22;30716;41.740;-70.400;2023-03-01T01:23:35;24.50;34.10
44982;DHT22;30716;41.740;-70.400;2023-03-01T01:26:11;24.40;34.10
44982;DHT22;30716;41.740;-70.400;2023-03-01T01:28:37;24.40;34.00
44982;DHT22;30716;41.740;-70.400;2023-03-01T01:31:04;24.40;34.00
44982;DHT22;30716;41.740;-70.400;2023-03-01T01:33:31;24.40;34.00
44982;DHT22;30716;41.740;-70.400;2023-03-01T01:35:57;24.50;34.00
44982;DHT22;30716;41.740;-70.400;2023-03-01T01:38:24;24.50;34.00
44982;DHT22;30716;41.740;-70.400;2023-03-01T01:40:51;24.50;34.20
44982;DHT22;30716;41.740;-70.400;2023-03-01T01:45:50;24.50;34.10
44982;DHT22;30716;41.740;-70.400;2023-03-01T01:48:20;24.50;34.30
44982;DHT22;30716;41.740;-70.400;2023-03-01T01:50:59;24.40;34.00
44982;DHT22;30716;41.740;-70.400;2023-03-01T01:53:26;24.50;34.20
44982;DHT22;30716;41.740;-70.400;2023-03-01T01:55:55;24.40;34.20
44982;DHT22;30716;41.740;-70.400;2023-03-01T01:58:25;24.50;34.30
44982;DHT22;30716;41.740;-70.400;2023-03-01T02:00:53;24.40;34.30
44982;DHT22;30716;41.740;-70.400;2023-03-01T02:03:27;24.50;34.30
44982;DHT22;30716;41.740;-70.400;2023-03-01T02:06:08;24.50;35.10
44982;DHT22;30716;41.740;-70.400;2023-03-01T02:08:41;24.50;34.20
44982;DHT22;30716;41.740;-70.400;2023-03-01T02:11:09;24.40;34.20
44982;DHT22;30716;41.740;-70.400;2023-03-01T02:13:36;24.40;34.20
44982;DHT22;30716;41.740;-70.400;2023-03-01T02:16:14;24.40;34.30
44982;DHT22;30716;41.740;-70.400;2023-03-01T02:18:41;24.40;34.20
44982;DHT22;30716;41.740;-70.400;2023-03-01T02:21:30;24.40;34.30
44982;DHT22;30716;41.740;-70.400;2023-03-01T02:24:08;24.40;34.30
44982;DHT22;30716;41.740;-70.400;2023-03-01T02:26:42;24.40;34.30
44982;DHT22;30716;41.740;-70.400;2023-03-01T02:29:11;24.40;34.20
44982;DHT22;30716;41.740;-70.400;2023-03-01T02:31:37;24.40;34.30
44982;DHT22;30716;41.740;-70.400;2023-03-01T02:34:16;24.40;34.40
44982;DHT22;30716;41.740;-70.400;2023-03-01T02:37:30;24.40;34.30
44982;DHT22;30716;41.740;-70.400;2023-03-01T02:39:47;24.40;34.80
44982;DHT22;30716;41.740;-70.400;2023-03-01T02:42:22;24.40;34.30
44982;DHT22;30716;41.740;-70.400;2023-03-01T02:44:51;24.40;35.20
44982;DHT22;30716;41.740;-70.400;2023-03-01T02:47:18;24.40;34.40
44982;DHT22;30716;41.740;-70.400;2023-03-01T02:49:44;24.40;34.40
44982;DHT22;30716;41.740;-70.400;2023-03-01T02:55:02;24.40;34.30
44982;DHT22;30716;41.740;-70.400;2023-03-01T02:57:31;24.40;34.40
44982;DHT22;30716;41.740;-70.400;2023-03-01T03:00:08;24.40;34.40
44982;DHT22;30716;41.740;-70.400;2023-03-01T03:02:35;24.30;34.70
44982;DHT22;30716;41.740;-70.400;2023-03-01T03:05:17;24.30;34.50
44982;DHT22;30716;41.740;-70.400;2023-03-01T03:07:46;24.30;34.40
44982;DHT22;30716;41.740;-70.400;2023-03-01T03:10:22;24.30;34.50
44982;DHT22;30716;41.740;-70.400;2023-03-01T03:12:56;24.30;34.40
44982;DHT22;30716;41.740;-70.400;2023-03-01T03:15:23;24.30;34.40
44982;DHT22;30716;41.740;-70.400;2023-03-01T03:17:51;24.30;34.30
44982;DHT22;30716;41.740;-70.400;2023-03-01T03:20:19;24.30;34.50
44982;DHT22;30716;41.740;-70.400;2023-03-01T03:22:51;24.30;34.40
44982;DHT22;30716;41.740;-70.400;2023-03-01T03:25:19;24.30;34.40
44982;DHT22;30716;41.740;-70.400;2023-03-01T03:27:47;24.30;34.40
44982;DHT22;30716;41.740;-70.400;2023-03-01T03:30:16;24.30;34.30
44982;DHT22;30716;41.740;-70.400;2023-03-01T03:32:44;24.30;34.50
44982;DHT22;30716;41.740;-70.400;2023-03-01T03:35:34;24.30;34.50
44982;DHT22;30716;41.740;-70.400;2023-03-01T03:38:06;24.30;34.60
44982;DHT22;30716;41.740;-70.400;2023-03-01T03:40:46;24.30;34.50
44982;DHT22;30716;41.740;-70.400;2023-03-01T03:43:19;24.30;34.50
44982;DHT22;30716;41.740;-70.400;2023-03-01T03:45:46;24.30;34.80
44982;DHT22;30716;41.740;-70.400;2023-03-01T03:48:13;24.30;34.50
44982;DHT22;30716;41.740;-70.400;2023-03-01T03:50:40;24.30;34.60
44982;DHT22;30716;41.740;-70.400;2023-03-01T03:53:11;24.30;34.50
44982;DHT22;30716;41.740;-70.400;2023-03-01T03:55:37;24.30;34.50
44982;DHT22;30716;41.740;-70.400;2023-03-01T03:58:08;24.30;34.50
44982;DHT22;30716;41.740;-70.400;2023-03-01T04:00:42;24.30;34.50
44982;DHT22;30716;41.740;-70.400;2023-03-01T04:03:10;24.30;34.40
44982;DHT22;30716;41.740;-70.400;2023-03-01T04:05:37;24.30;34.70
44982;DHT22;30716;41.740;-70.400;2023-03-01T04:08:04;24.40;34.60
44982;DHT22;30716;41.740;-70.400;2023-03-01T04:10:38;24.40;34.70
44982;DHT22;30716;41.740;-70.400;2023-03-01T04:13:06;24.40;34.70
44982;DHT22;30716;41.740;-70.400;2023-03-01T04:15:34;24.40;34.60
44982;DHT22;30716;41.740;-70.400;2023-03-01T04:18:01;24.40;34.60
44982;DHT22;30716;41.740;-70.400;2023-03-01T04:20:29;24.40;34.70
44982;DHT22;30716;41.740;-70.400;2023-03-01T04:23:11;24.40;34.50
44982;DHT22;30716;41.740;-70.400;2023-03-01T04:25:50;24.40;34.60
44982;DHT22;30716;41.740;-70.400;2023-03-01T04:28:25;24.40;34.60
44982;DHT22;30716;41.740;-70.400;2023-03-01T04:30:53;24.40;34.50
44982;DHT22;30716;41.740;-70.400;2023-03-01T04:33:20;24.40;34.70
44982;DHT22;30716;41.740;-70.400;2023-03-01T04:35:47;24.40;34.60
44982;DHT22;30716;41.740;-70.400;2023-03-01T04:38:18;24.40;34.60
44982;DHT22;30716;41.740;-70.400;2023-03-01T04:40:45;24.40;34.50
44982;DHT22;30716;41.740;-70.400;2023-03-01T04:43:12;24.40;34.40
44982;DHT22;30716;41.740;-70.400;2023-03-01T04:45:41;24.50;34.40
44982;DHT22;30716;41.740;-70.400;2023-03-01T04:48:08;24.50;34.50
44982;DHT22;30716;41.740;-70.400;2023-03-01T04:50:35;24.50;34.40
44982;DHT22;30716;41.740;-70.400;2023-03-01T04:53:02;24.50;34.40
44982;DHT22;30716;41.740;-70.400;2023-03-01T04:55:29;24.50;34.40
44982;DHT22;30716;41.740;-70.400;2023-03-01T04:57:55;24.50;34.40
44982;DHT22;30716;41.740;-70.400;2023-03-01T05:00:23;24.50;34.40
44982;DHT22;30716;41.740;-70.400;2023-03-01T05:02:54;24.50;34.40
44982;DHT22;30716;41.740;-70.400;2023-03-01T05:05:23;24.50;34.40
44982;DHT22;30716;41.740;-70.400;2023-03-01T05:07:52;24.50;34.40
44982;DHT22;30716;41.740;-70.400;2023-03-01T05:10:19;24.60;34.50
44982;DHT22;30716;41.740;-70.400;2023-03-01T05:12:45;24.50;34.40
44982;DHT22;30716;41.740;-70.400;2023-03-01T05:15:12;24.60;34.60
44982;DHT22;30716;41.740;-70.400;2023-03-01T05:17:38;24.50;34.50
44982;DHT22;30716;41.740;-70.400;2023-03-01T05:20:05;24.60;34.50
44982;DHT22;30716;41.740;-70.400;2023-03-01T05:22:34;24.50;34.40
44982;DHT22;30716;41.740;-70.400;2023-03-01T05:25:02;24.50;34.50
44982;DHT22;30716;41.740;-70.400;2023-03-01T05:27:29;24.50;34.70
44982;DHT22;30716;41.740;-70.400;2023-03-01T05:29:56;24.50;34.50
44982;DHT22;30716;41.740;-70.400;2023-03-01T05:32:22;24.50;34.50
44982;DHT22;30716;41.740;-70.400;2023-03-01T05:34:48;24.50;34.60
44982;DHT22;30716;41.740;-70.400;2023-03-01T05:37:15;24.50;34.50
44982;DHT22;30716;41.740;-70.400;2023-03-01T05:39:41;24.50;34.60
44982;DHT22;30716;41.740;-70.400;2023-03-01T05:42:10;24.50;34.50
44982;DHT22;30716;41.740;-70.400;2023-03-01T05:44:37;24.50;34.40
44982;DHT22;30716;41.740;-70.400;2023-03-01T05:47:03;24.50;34.40
44982;DHT22;30716;41.740;-70.400;2023-03-01T05:49:29;24.50;34.40
44982;DHT22;30716;41.740;-70.400;2023-03-01T05:51:57;24.50;34.50
44982;DHT22;30716;41.740;-70.400;2023-03-01T05:54:23;24.50;34.40
44982;DHT22;30716;41.740;-70.400;2023-03-01T05:56:49;24.50;34.50
44982;DHT22;30716;41.740;-70.400;2023-03-01T05:59:16;24.50;34.50
44982;DHT22;30716;41.740;-70.400;2023-03-01T06:01:42;24.50;34.40
44982;DHT22;30716;41.740;-70.400;2023-03-01T06:04:08;24.50;34.50
44982;DHT22;30716;41.740;-70.400;2023-03-01T06:06:36;24.50;34.40
44982;DHT22;30716;41.740;-70.400;2023-03-01T06:09:06;24.50;34.40
44982;DHT22;30716;41.740;-70.400;2023-03-01T06:11:36;24.50;34.40
44982;DHT22;30716;41.740;-70.400;2023-03-01T06:14:03;24.50;34.30
44982;DHT22;30716;41.740;-70.400;2023-03-01T06:16:30;24.50;34.30
44982;DHT22;30716;41.740;-70.400;2023-03-01T06:18:56;24.50;34.20
44982;DHT22;30716;41.740;-70.400;2023-03-01T06:21:22;24.50;34.20
44982;DHT22;30716;41.740;-70.400;2023-03-01T06:23:48;24.50;34.20
44982;DHT22;30716;41.740;-70.400;2023-03-01T06:26:15;24.50;34.30
44982;DHT22;30716;41.740;-70.400;2023-03-01T06:28:41;24.50;34.30
44982;DHT22;30716;41.740;-70.400;2023-03-01T06:31:07;24.50;34.40
44982;DHT22;30716;41.740;-70.400;2023-03-01T06:33:34;24.50;34.20
44982;DHT22;30716;41.740;-70.400;2023-03-01T06:36:01;24.50;34.30
44982;DHT22;30716;41.740;-70.400;2023-03-01T06:38:28;24.50;34.50
44982;DHT22;30716;41.740;-70.400;2023-03-01T06:40:55;24.50;34.40
44982;DHT22;30716;41.740;-70.400;2023-03-01T06:43:23;24.50;34.30
44982;DHT22;30716;41.740;-70.400;2023-03-01T06:45:49;24.50;34.40
44982;DHT22;30716;41.740;-70.400;2023-03-01T06:48:16;24.50;34.40
44982;DHT22;30716;41.740;-70.400;2023-03-01T06:50:42;24.50;34.40
44982;DHT22;30716;41.740;-70.400;2023-03-01T06:53:08;24.50;34.40
44982;DHT22;30716;41.740;-70.400;2023-03-01T06:55:35;24.50;34.40
44982;DHT22;30716;41.740;-70.400;2023-03-01T06:58:02;24.50;34.50
44982;DHT22;30716;41.740;-70.400;2023-03-01T07:00:29;24.50;34.40
44982;DHT22;30716;41.740;-70.400;2023-03-01T07:02:59;24.50;34.40
44982;DHT22;30716;41.740;-70.400;2023-03-01T07:05:25;24.50;34.40
44982;DHT22;30716;41.740;-70.400;2023-03-01T07:07:53;24.50;34.40
44982;DHT22;30716;41.740;-70.400;2023-03-01T07:10:20;24.50;34.30
44982;DHT22;30716;41.740;-70.400;2023-03-01T07:12:47;24.50;34.40
44982;DHT22;30716;41.740;-70.400;2023-03-01T07:15:14;24.50;34.40
44982;DHT22;30716;41.740;-70.400;2023-03-01T07:17:40;24.50;34.40
44982;DHT22;30716;41.740;-70.400;2023-03-01T07:20:07;24.50;34.30
44982;DHT22;30716;41.740;-70.400;2023-03-01T07:22:33;24.50;34.40
44982;DHT22;30716;41.740;-70.400;2023-03-01T07:24:59;24.50;34.30
44982;DHT22;30716;41.740;-70.400;2023-03-01T07:27:26;24.50;34.30
44982;DHT22;30716;41.740;-70.400;2023-03-01T07:29:52;24.50;34.40
44982;DHT22;30716;41.740;-70.400;2023-03-01T07:32:18;24.50;34.30
44982;DHT22;30716;41.740;-70.400;2023-03-01T07:34:44;24.50;34.50
44982;DHT22;30716;41.740;-70.400;2023-03-01T07:37:10;24.50;34.30
44982;DHT22;30716;41.740;-70.400;2023-03-01T07:39:37;24.50;34.50
44982;DHT22;30716;41.740;-70.400;2023-03-01T07:42:03;24.50;34.30
44982;DHT22;30716;41.740;-70.400;2023-03-01T07:44:29;24.50;34.40
44982;DHT22;30716;41.740;-70.400;2023-03-01T07:46:55;24.50;34.50
44982;DHT22;30716;41.740;-70.400;2023-03-01T07:49:23;24.50;34.40
44982;DHT22;30716;41.740;-70.400;2023-03-01T07:51:52;24.60;35.20
44982;DHT22;30716;41.740;-70.400;2023-03-01T07:54:18;24.60;34.40
44982;DHT22;30716;41.740;-70.400;2023-03-01T07:56:45;24.60;34.40
44982;DHT22;30716;41.740;-70.400;2023-03-01T07:59:11;24.50;34.40
44982;DHT22;30716;41.740;-70.400;2023-03-01T08:01:37;24.60;34.40
44982;DHT22;30716;41.740;-70.400;2023-03-01T08:04:04;24.60;34.30
44982;DHT22;30716;41.740;-70.400;2023-03-01T08:06:34;24.60;34.30
44982;DHT22;30716;41.740;-70.400;2023-03-01T08:09:01;24.60;34.30
44982;DHT22;30716;41.740;-70.400;2023-03-01T08:11:27;24.60;34.20
44982;DHT22;30716;41.740;-70.400;2023-03-01T08:13:54;24.60;34.30
44982;DHT22;30716;41.740;-70.400;2023-03-01T08:16:20;24.60;34.30
44982;DHT22;30716;41.740;-70.400;2023-03-01T08:18:46;24.60;34.20
44982;DHT22;30716;41.740;-70.400;2023-03-01T08:21:14;24.60;34.20
44982;DHT22;30716;41.740;-70.400;2023-03-01T08:23:42;24.60;34.40
44982;DHT22;30716;41.740;-70.400;2023-03-01T08:26:11;24.60;34.40
44982;DHT22;30716;41.740;-70.400;2023-03-01T08:28:38;24.60;34.50
44982;DHT22;30716;41.740;-70.400;2023-03-01T08:31:16;24.60;34.40
44982;DHT22;30716;41.740;-70.400;2023-03-01T08:33:43;24.60;34.30
44982;DHT22;30716;41.740;-70.400;2023-03-01T08:36:09;24.60;34.50
44982;DHT22;30716;41.740;-70.400;2023-03-01T08:38:35;24.60;34.50
44982;DHT22;30716;41.740;-70.400;2023-03-01T08:41:04;24.60;34.40
44982;DHT22;30716;41.740;-70.400;2023-03-01T08:43:31;24.60;34.40
44982;DHT22;30716;41.740;-70.400;2023-03-01T08:45:57;24.60;34.30
44982;DHT22;30716;41.740;-70.400;2023-03-01T08:48:23;24.60;34.30
44982;DHT22;30716;41.740;-70.400;2023-03-01T08:50:50;24.60;34.30
44982;DHT22;30716;41.740;-70.400;2023-03-01T08:53:16;24.60;34.30
44982;DHT22;30716;41.740;-70.400;2023-03-01T08:55:42;24.60;34.50
44982;DHT22;30716;41.740;-70.400;2023-03-01T08:58:08;24.60;34.40
44982;DHT22;30716;41.740;-70.400;2023-03-01T09:00:35;24.60;34.50
44982;DHT22;30716;41.740;-70.400;2023-03-01T09:03:04;24.60;34.40
44982;DHT22;30716;41.740;-70.400;2023-03-01T09:05:34;24.60;34.60
44982;DHT22;30716;41.740;-70.400;2023-03-01T09:08:01;24.60;34.50
44982;DHT22;30716;41.740;-70.400;2023-03-01T09:10:28;24.60;34.50
44982;DHT22;30716;41.740;-70.400;2023-03-01T09:12:54;24.60;34.40
44982;DHT22;30716;41.740;-70.400;2023-03-01T09:15:20;24.60;34.50
44982;DHT22;30716;41.740;-70.400;2023-03-01T09:17:46;24.60;34.40
44982;DHT22;30716;41.740;-70.400;2023-03-01T09:20:12;24.60;34.20
44982;DHT22;30716;41.740;-70.400;2023-03-01T09:22:39;24.60;34.30
44982;DHT22;30716;41.740;-70.400;2023-03-01T09:25:05;24.60;34.50
44982;DHT22;30716;41.740;-70.400;2023-03-01T09:27:32;24.60;34.50
44982;DHT22;30716;41.740;-70.400;2023-03-01T09:29:58;24.60;34.50
44982;DHT22;30716;41.740;-70.400;2023-03-01T09:32:24;24.60;34.40
44982;DHT22;30716;41.740;-70.400;2023-03-01T09:34:50;24.60;34.40
44982;DHT22;30716;41.740;-70.400;2023-03-01T09:37:33;24.60;34.50
44982;DHT22;30716;41.740;-70.400;2023-03-01T09:40:00;24.60;34.50
44982;DHT22;30716;41.740;-70.400;2023-03-01T09:42:27;24.50;34.40
44982;DHT22;30716;41.740;-70.400;2023-03-01T09:45:05;24.60;34.40
44982;DHT22;30716;41.740;-70.400;2023-03-01T09:47:36;24.60;34.40
44982;DHT22;30716;41.740;-70.400;2023-03-01T09:55:29;24.50;34.40
44982;DHT22;30716;41.740;-70.400;2023-03-01T10:00:48;24.50;34.40
44982;DHT22;30716;41.740;-70.400;2023-03-01T10:08:52;24.50;34.60
44982;DHT22;30716;41.740;-70.400;2023-03-01T10:17:24;24.50;34.40
44982;DHT22;30716;41.740;-70.400;2023-03-01T10:19:45;24.50;34.40
44982;DHT22;30716;41.740;-70.400;2023-03-01T10:22:29;24.40;34.30
44982;DHT22;30716;41.740;-70.400;2023-03-01T10:24:59;24.50;34.50
44982;DHT22;30716;41.740;-70.400;2023-03-01T10:28:16;24.50;34.50
44982;DHT22;30716;41.740;-70.400;2023-03-01T10:30:38;24.50;34.50
44982;DHT22;30716;41.740;-70.400;2023-03-01T10:35:43;24.40;34.40
44982;DHT22;30716;41.740;-70.400;2023-03-01T10:38:13;24.40;34.40
44982;DHT22;30716;41.740;-70.400;2023-03-01T10:41:05;24.40;34.30
44982;DHT22;30716;41.740;-70.400;2023-03-01T10:43:48;24.40;34.40
44982;DHT22;30716;41.740;-70.400;2023-03-01T10:46:35;24.40;34.60
44982;DHT22;30716;41.740;-70.400;2023-03-01T10:51:36;24.40;34.40
44982;DHT22;30716;41.740;-70.400;2023-03-01T10:54:06;24.40;34.40
44982;DHT22;30716;41.740;-70.400;2023-03-01T10:56:55;24.50;34.50
44982;DHT22;30716;41.740;-70.400;2023-03-01T10:59:33;24.50;34.80
44982;DHT22;30716;41.740;-70.400;2023-03-01T11:04:35;24.50;34.60
44982;DHT22;30716;41.740;-70.400;2023-03-01T11:07:02;24.50;34.50
44982;DHT22;30716;41.740;-70.400;2023-03-01T11:09:33;24.50;34.60
44982;DHT22;30716;41.740;-70.400;2023-03-01T11:12:15;24.50;34.70
44982;DHT22;30716;41.740;-70.400;2023-03-01T11:14:53;24.50;34.60
44982;DHT22;30716;41.740;-70.400;2023-03-01T11:17:29;24.50;34.50
44982;DHT22;30716;41.740;-70.400;2023-03-01T11:22:54;24.50;34.40
44982;DHT22;30716;41.740;-70.400;2023-03-01T11:25:25;24.50;34.30
44982;DHT22;30716;41.740;-70.400;2023-03-01T11:27:53;24.50;34.40
44982;DHT22;30716;41.740;-70.400;2023-03-01T11:30:31;24.50;34.50
44982;DHT22;30716;41.740;-70.400;2023-03-01T11:33:16;24.50;34.50
44982;DHT22;30716;41.740;-70.400;2023-03-01T11:38:55;24.60;34.50
44982;DHT22;30716;41.740;-70.400;2023-03-01T11:41:34;24.50;34.30
44982;DHT22;30716;41.740;-70.400;2023-03-01T11:44:09;24.60;34.40
44982;DHT22;30716;41.740;-70.400;2023-03-01T11:49:20;24.60;34.40
44982;DHT22;30716;41.740;-70.400;2023-03-01T11:57:33;24.60;34.30
44982;DHT22;30716;41.740;-70.400;2023-03-01T12:19:59;24.60;34.60
44982;DHT22;30716;41.740;-70.400;2023-03-01T12:22:37;24.60;34.60
44982;DHT22;30716;41.740;-70.400;2023-03-01T12:31:05;24.60;34.50
44982;DHT22;30716;41.740;-70.400;2023-03-01T12:34:08;24.60;34.60
44982;DHT22;30716;41.740;-70.400;2023-03-01T12:36:46;24.60;34.50
44982;DHT22;30716;41.740;-70.400;2023-03-01T12:39:39;24.60;34.50
44982;DHT22;30716;41.740;-70.400;2023-03-01T12:42:30;24.60;34.40
44982;DHT22;30716;41.740;-70.400;2023-03-01T12:50:25;24.60;34.50
44982;DHT22;30716;41.740;-70.400;2023-03-01T12:52:56;24.50;34.40
44982;DHT22;30716;41.740;-70.400;2023-03-01T12:55:31;24.50;34.40
44982;DHT22;30716;41.740;-70.400;2023-03-01T13:00:32;24.50;34.30
44982;DHT22;30716;41.740;-70.400;2023-03-01T13:06:24;24.50;34.20
44982;DHT22;30716;41.740;-70.400;2023-03-01T13:09:14;24.50;34.20
44982;DHT22;30716;41.740;-70.400;2023-03-01T13:11:43;24.50;34.20
44982;DHT22;30716;41.740;-70.400;2023-03-01T13:16:52;24.50;34.40
44982;DHT22;30716;41.740;-70.400;2023-03-01T13:19:19;24.50;34.30
44982;DHT22;30716;41.740;-70.400;2023-03-01T13:21:48;24.50;34.10
44982;DHT22;30716;41.740;-70.400;2023-03-01T13:24:48;24.50;34.20
44982;DHT22;30716;41.740;-70.400;2023-03-01T13:27:26;24.50;34.20
44982;DHT22;30716;41.740;-70.400;2023-03-01T13:29:59;24.40;34.20
44982;DHT22;30716;41.740;-70.400;2023-03-01T13:32:31;24.50;34.30
44982;DHT22;30716;41.740;-70.400;2023-03-01T13:37:46;24.40;34.20
44982;DHT22;30716;41.740;-70.400;2023-03-01T13:42:47;24.40;34.30
44982;DHT22;30716;41.740;-70.400;2023-03-01T13:45:41;24.40;34.40
44982;DHT22;30716;41.740;-70.400;2023-03-01T13:48:18;24.40;34.30
44982;DHT22;30716;41.740;-70.400;2023-03-01T13:50:53;24.40;34.40
44982;DHT22;30716;41.740;-70.400;2023-03-01T13:53:24;24.40;35.30
44982;DHT22;30716;41.740;-70.400;2023-03-01T13:55:56;24.40;34.60
44982;DHT22;30716;41.740;-70.400;2023-03-01T13:58:31;24.40;34.50
44982;DHT22;30716;41.740;-70.400;2023-03-01T14:01:01;24.40;34.50
44982;DHT22;30716;41.740;-70.400;2023-03-01T14:03:29;24.40;34.50
44982;DHT22;30716;41.740;-70.400;2023-03-01T14:06:15;24.40;34.70
44982;DHT22;30716;41.740;-70.400;2023-03-01T14:08:44;24.40;34.50
44982;DHT22;30716;41.740;-70.400;2023-03-01T14:19:17;24.30;34.50
44982;DHT22;30716;41.740;-70.400;2023-03-01T14:21:46;24.30;34.40
44982;DHT22;30716;41.740;-70.400;2023-03-01T14:24:21;24.30;34.50
44982;DHT22;30716;41.740;-70.400;2023-03-01T14:26:49;24.30;34.50
44982;DHT22;30716;41.740;-70.400;2023-03-01T14:29:33;24.30;34.60
44982;DHT22;30716;41.740;-70.400;2023-03-01T14:32:30;24.30;34.60
44982;DHT22;30716;41.740;-70.400;2023-03-01T14:34:59;24.30;34.40
44982;DHT22;30716;41.740;-70.400;2023-03-01T14:37:28;24.30;34.50
44982;DHT22;30716;41.740;-70.400;2023-03-01T14:39:56;24.30;34.40
44982;DHT22;30716;41.740;-70.400;2023-03-01T14:42:26;24.30;34.30
44982;DHT22;30716;41.740;-70.400;2023-03-01T14:44:55;24.30;34.30
44982;DHT22;30716;41.740;-70.400;2023-03-01T14:47:35;24.30;34.20
44982;DHT22;30716;41.740;-70.400;2023-03-01T14:52:47;24.30;34.20
44982;DHT22;30716;41.740;-70.400;2023-03-01T14:55:20;24.30;34.20
44982;DHT22;30716;41.740;-70.400;2023-03-01T14:57:51;24.30;34.30
44982;DHT22;30716;41.740;-70.400;2023-03-01T15:00:24;24.30;34.40
44982;DHT22;30716;41.740;-70.400;2023-03-01T15:02:52;24.30;34.30
44982;DHT22;30716;41.740;-70.400;2023-03-01T15:05:33;24.30;34.30
44982;DHT22;30716;41.740;-70.400;2023-03-01T15:08:01;24.30;34.40
44982;DHT22;30716;41.740;-70.400;2023-03-01T15:10:31;24.30;34.40
44982;DHT22;30716;41.740;-70.400;2023-03-01T15:13:19;24.30;34.50
44982;DHT22;30716;41.740;-70.400;2023-03-01T15:15:47;24.30;34.60
44982;DHT22;30716;41.740;-70.400;2023-03-01T15:18:16;24.20;34.60
44982;DHT22;30716;41.740;-70.400;2023-03-01T15:20:44;24.20;34.70
44982;DHT22;30716;41.740;-70.400;2023-03-01T15:23:28;24.20;35.00
44982;DHT22;30716;41.740;-70.400;2023-03-01T15:25:56;24.20;34.90
44982;DHT22;30716;41.740;-70.400;2023-03-01T15:28:29;24.20;35.00
44982;DHT22;30716;41.740;-70.400;2023-03-01T15:31:03;24.20;35.10
44982;DHT22;30716;41.740;-70.400;2023-03-01T15:33:35;24.20;34.90
44982;DHT22;30716;41.740;-70.400;2023-03-01T15:38:56;24.20;35.00
44982;DHT22;30716;41.740;-70.400;2023-03-01T15:41:36;24.10;35.00
44982;DHT22;30716;41.740;-70.400;2023-03-01T15:44:17;24.10;35.10
44982;DHT22;30716;41.740;-70.400;2023-03-01T15:46:47;24.10;35.00
44982;DHT22;30716;41.740;-70.400;2023-03-01T15:49:41;24.10;35.00
44982;DHT22;30716;41.740;-70.400;2023-03-01T15:52:17;24.10;34.70
44982;DHT22;30716;41.740;-70.400;2023-03-01T15:54:45;24.10;35.00
44982;DHT22;30716;41.740;-70.400;2023-03-01T15:57:14;24.10;35.10
44982;DHT22;30716;41.740;-70.400;2023-03-01T15:59:41;24.10;35.30
44982;DHT22;30716;41.740;-70.400;2023-03-01T16:02:11;24.10;35.10
44982;DHT22;30716;41.740;-70.400;2023-03-01T16:04:39;24.10;35.10
44982;DHT22;30716;41.740;-70.400;2023-03-01T16:07:06;24.10;35.20
44982;DHT22;30716;41.740;-70.400;2023-03-01T16:09:32;24.10;35.30
44982;DHT22;30716;41.740;-70.400;2023-03-01T16:11:58;24.00;35.20
44982;DHT22;30716;41.740;-70.400;2023-03-01T16:14:24;24.10;35.10
44982;DHT22;30716;41.740;-70.400;2023-03-01T16:16:50;24.10;35.20
44982;DHT22;30716;41.740;-70.400;2023-03-01T16:19:17;24.00;35.00
44982;DHT22;30716;41.740;-70.400;2023-03-01T16:21:43;24.00;35.00
44982;DHT22;30716;41.740;-70.400;2023-03-01T16:24:13;24.00;35.00
44982;DHT22;30716;41.740;-70.400;2023-03-01T16:26:39;24.00;35.10
44982;DHT22;30716;41.740;-70.400;2023-03-01T16:29:05;24.10;35.40
44982;DHT22;30716;41.740;-70.400;2023-03-01T16:31:32;24.00;35.40
44982;DHT22;30716;41.740;-70.400;2023-03-01T16:33:59;24.00;35.30
44982;DHT22;30716;41.740;-70.400;2023-03-01T16:36:26;24.00;35.30
44982;DHT22;30716;41.740;-70.400;2023-03-01T16:38:58;24.00;35.60
44982;DHT22;30716;41.740;-70.400;2023-03-01T16:41:24;24.00;35.30
44982;DHT22;30716;41.740;-70.400;2023-03-01T16:43:51;24.00;35.50
44982;DHT22;30716;41.740;-70.400;2023-03-01T16:46:20;24.00;35.50
44982;DHT22;30716;41.740;-70.400;2023-03-01T16:48:47;24.00;35.90
44982;DHT22;30716;41.740;-70.400;2023-03-01T16:51:13;24.00;35.50
44982;DHT22;30716;41.740;-70.400;2023-03-01T16:53:39;24.00;35.60
44982;DHT22;30716;41.740;-70.400;2023-03-01T16:56:09;24.00;35.50
44982;DHT22;30716;41.740;-70.400;2023-03-01T16:58:37;24.00;35.60
44982;DHT22;30716;41.740;-70.400;2023-03-01T17:01:14;24.00;35.70
44982;DHT22;30716;41.740;-70.400;2023-03-01T17:03:42;24.00;35.90
44982;DHT22;30716;41.740;-70.400;2023-03-01T17:06:11;24.00;35.50
44982;DHT22;30716;41.740;-70.400;2023-03-01T17:08:38;24.00;36.50